sensor_id;sensor_type;location;lat;lon;timestamp;temperature;humidity
1976;DHT22;988;48.016;7.800;2022-11-03T00:00:29;8.40;99.90
1976;DHT22;988;48.016;7.800;2022-11-03T00:02:55;8.30;99.90
1976;DHT22;988;48.016;7.800;2022-11-03T00:05:20;8.30;99.90
1976;DHT22;988;48.016;7.800;2022-11-03T00:08:05;8.30;99.90
1976;DHT22;988;48.016;7.800;2022-11-03T00:10:30;8.20;99.90
1976;DHT22;988;48.016;7.800;2022-11-03T00:12:56;8.20;99.90
1976;DHT22;988;48.016;7.800;2022-11-03T00:15:21;8.20;99.90
1976;DHT22;988;48.016;7.800;2022-11-03T00:17:47;8.10;99.90
1976;DHT22;988;48.016;7.800;2022-11-03T00:20:13;8.00;99.90
1976;DHT22;988;48.016;7.800;2022-11-03T00:22:38;7.90;99.90
1976;DHT22;988;48.016;7.800;2022-11-03T00:25:04;7.80;99.90
1976;DHT22;988;48.016;7.800;2022-11-03T00:27:30;7.70;99.90
1976;DHT22;988;48.016;7.800;2022-11-03T00:29:55;7.70;99.90
1976;DHT22;988;48.016;7.800;2022-11-03T00:32:21;7.70;99.90
1976;DHT22;988;48.016;7.800;2022-11-03T00:34:47;7.70;99.90
1976;DHT22;988;48.016;7.800;2022-11-03T00:37:12;7.70;99.90
1976;DHT22;988;48.016;7.800;2022-11-03T00:39:38;7.70;99.90
1976;DHT22;988;48.016;7.800;2022-11-03T00:42:04;7.60;99.90
1976;DHT22;988;48.016;7.800;2022-11-03T00:44:29;7.50;99.90
1976;DHT22;988;48.016;7.800;2022-11-03T00:46:55;7.50;99.90
1976;DHT22;988;48.016;7.800;2022-11-03T00:49:20;7.40;99.90
1976;DHT22;988;48.016;7.800;2022-11-03T00:51:46;7.30;99.90
1976;DHT22;988;48.016;7.800;2022-11-03T00:54:12;7.30;99.90
1976;DHT22;988;48.016;7.800;2022-11-03T00:56:39;7.20;99.90
1976;DHT22;988;48.016;7.800;2022-11-03T00:59:06;7.10;99.90
1976;DHT22;988;48.016;7.800;2022-11-03T01:01:37;7.00;99.90
1976;DHT22;988;48.016;7.800;2022-11-03T01:04:05;7.00;99.90
1976;DHT22;988;48.016;7.800;2022-11-03T01:06:51;7.10;99.90
1976;DHT22;988;48.016;7.800;2022-11-03T01:09:21;7.20;99.90
1976;DHT22;988;48.016;7.800;2022-11-03T01:17:08;7.10;99.90
1976;DHT22;988;48.016;7.800;2022-11-03T01:19:34;7.00;99.90
1976;DHT22;988;48.016;7.800;2022-11-03T01:22:00;7.10;99.90
1976;DHT22;988;48.016;7.800;2022-11-03T01:24:26;7.10;99.90
1976;DHT22;988;48.016;7.800;2022-11-03T01:26:51;7.10;99.90
1976;DHT22;988;48.016;7.800;2022-11-03T01:29:17;7.00;99.90
1976;DHT22;988;48.016;7.800;2022-11-03T01:31:42;6.90;99.90
1976;DHT22;988;48.016;7.800;2022-11-03T01:34:13;6.80;99.90
1976;DHT22;988;48.016;7.800;2022-11-03T01:36:39;6.90;99.90
1976;DHT22;988;48.016;7.800;2022-11-03T01:39:05;7.00;99.90
1976;DHT22;988;48.016;7.800;2022-11-03T01:41:31;7.00;99.90
1976;DHT22;988;48.016;7.800;2022-11-03T01:46:31;6.80;99.90
1976;DHT22;988;48.016;7.800;2022-11-03T01:49:05;6.70;99.90
1976;DHT22;988;48.016;7.800;2022-11-03T01:51:33;6.70;99.90
1976;DHT22;988;48.016;7.800;2022-11-03T01:54:05;6.80;99.90
1976;DHT22;988;48.016;7.800;2022-11-03T01:56:33;6.70;99.90
1976;DHT22;988;48.016;7.800;2022-11-03T01:59:00;6.80;99.90
1976;DHT22;988;48.016;7.800;2022-11-03T02:01:27;6.90;99.90
1976;DHT22;988;48.016;7.800;2022-11-03T02:03:58;6.80;99.90
1976;DHT22;988;48.016;7.800;2022-11-03T02:06:26;6.70;99.90
1976;DHT22;988;48.016;7.800;2022-11-03T02:09:04;6.70;99.90
1976;DHT22;988;48.016;7.800;2022-11-03T02:11:31;6.70;99.90
1976;DHT22;988;48.016;7.800;2022-11-03T02:14:16;6.80;99.90
1976;DHT22;988;48.016;7.800;2022-11-03T02:16:45;6.70;99.90
1976;DHT22;988;48.016;7.800;2022-11-03T02:19:29;6.80;99.90
1976;DHT22;988;48.016;7.800;2022-11-03T02:27:15;6.80;99.90
1976;DHT22;988;48.016;7.800;2022-11-03T02:29:41;6.80;99.90
1976;DHT22;988;48.016;7.800;2022-11-03T02:32:30;6.90;99.90
1976;DHT22;988;48.016;7.800;2022-11-03T02:37:33;6.80;99.90
1976;DHT22;988;48.016;7.800;2022-11-03T02:40:07;6.70;99.90
1976;DHT22;988;48.016;7.800;2022-11-03T02:42:35;6.60;99.90
1976;DHT22;988;48.016;7.800;2022-11-03T02:45:04;6.50;99.90
1976;DHT22;988;48.016;7.800;2022-11-03T02:47:32;6.50;99.90
1976;DHT22;988;48.016;7.800;2022-11-03T02:49:59;6.60;99.90
1976;DHT22;988;48.016;7.800;2022-11-03T02:52:42;6.80;99.90
1976;DHT22;988;48.016;7.800;2022-11-03T02:55:19;6.80;99.90
1976;DHT22;988;48.016;7.800;2022-11-03T03:00:20;6.60;99.90
1976;DHT22;988;48.016;7.800;2022-11-03T03:03:05;6.60;99.90
1976;DHT22;988;48.016;7.800;2022-11-03T03:05:34;6.50;99.90
1976;DHT22;988;48.016;7.800;2022-11-03T03:08:04;6.50;99.90
1976;DHT22;988;48.016;7.800;2022-11-03T03:10:35;6.60;99.90
1976;DHT22;988;48.016;7.800;2022-11-03T03:13:02;6.60;99.90
1976;DHT22;988;48.016;7.800;2022-11-03T03:15:41;6.50;99.90
1976;DHT22;988;48.016;7.800;2022-11-03T03:18:29;6.50;99.90
1976;DHT22;988;48.016;7.800;2022-11-03T03:21:29;6.50;99.90
1976;DHT22;988;48.016;7.800;2022-11-03T03:23:58;6.40;99.90
1976;DHT22;988;48.016;7.800;2022-11-03T03:26:36;6.40;99.90
1976;DHT22;988;48.016;7.800;2022-11-03T03:29:14;6.50;99.90
1976;DHT22;988;48.016;7.800;2022-11-03T03:31:43;6.50;99.90
1976;DHT22;988;48.016;7.800;2022-11-03T03:34:12;6.50;99.90
1976;DHT22;988;48.016;7.800;2022-11-03T03:36:39;6.60;99.90
1976;DHT22;988;48.016;7.800;2022-11-03T03:39:06;6.50;99.90
1976;DHT22;988;48.016;7.800;2022-11-03T03:41:35;6.50;99.90
1976;DHT22;988;48.016;7.800;2022-11-03T03:44:04;6.50;99.90
1976;DHT22;988;48.016;7.800;2022-11-03T03:46:35;6.50;99.90
1976;DHT22;988;48.016;7.800;2022-11-03T03:49:01;6.70;99.90
1976;DHT22;988;48.016;7.800;2022-11-03T03:51:27;6.70;99.90
1976;DHT22;988;48.016;7.800;2022-11-03T03:53:54;6.60;99.90
1976;DHT22;988;48.016;7.800;2022-11-03T03:56:27;6.70;99.90
1976;DHT22;988;48.016;7.800;2022-11-03T03:58:54;6.50;99.90
1976;DHT22;988;48.016;7.800;2022-11-03T04:01:20;6.50;99.90
1976;DHT22;988;48.016;7.800;2022-11-03T04:03:45;6.60;99.90
1976;DHT22;988;48.016;7.800;2022-11-03T04:06:11;6.60;99.90
1976;DHT22;988;48.016;7.800;2022-11-03T04:08:36;6.60;99.90
1976;DHT22;988;48.016;7.800;2022-11-03T04:11:02;6.50;99.90
1976;DHT22;988;48.016;7.800;2022-11-03T04:13:46;6.60;99.90
1976;DHT22;988;48.016;7.800;2022-11-03T04:16:30;6.50;99.90
1976;DHT22;988;48.016;7.800;2022-11-03T04:19:14;6.50;99.90
1976;DHT22;988;48.016;7.800;2022-11-03T04:21:58;6.40;99.90
1976;DHT22;988;48.016;7.800;2022-11-03T04:24:47;6.40;99.90
1976;DHT22;988;48.016;7.800;2022-11-03T04:29:51;6.50;99.90
1976;DHT22;988;48.016;7.800;2022-11-03T04:32:17;6.40;99.90
1976;DHT22;988;48.016;7.800;2022-11-03T04:34:46;6.20;99.90
1976;DHT22;988;48.016;7.800;2022-11-03T04:37:14;6.20;99.90
1976;DHT22;988;48.016;7.800;2022-11-03T04:39:39;6.10;99.90
1976;DHT22;988;48.016;7.800;2022-11-03T04:42:18;6.10;99.90
1976;DHT22;988;48.016;7.800;2022-11-03T04:44:48;6.10;99.90
1976;DHT22;988;48.016;7.800;2022-11-03T04:47:15;6.10;99.90
1976;DHT22;988;48.016;7.800;2022-11-03T04:49:42;6.00;99.90
1976;DHT22;988;48.016;7.800;2022-11-03T04:52:21;5.90;99.90
1976;DHT22;988;48.016;7.800;2022-11-03T04:54:49;6.00;99.90
1976;DHT22;988;48.016;7.800;2022-11-03T04:57:16;6.00;99.90
1976;DHT22;988;48.016;7.800;2022-11-03T04:59:46;6.00;99.90
1976;DHT22;988;48.016;7.800;2022-11-03T05:02:15;6.00;99.90
1976;DHT22;988;48.016;7.800;2022-11-03T05:04:41;6.00;99.90
1976;DHT22;988;48.016;7.800;2022-11-03T05:07:30;6.00;99.90
1976;DHT22;988;48.016;7.800;2022-11-03T05:09:57;6.00;99.90
1976;DHT22;988;48.016;7.800;2022-11-03T05:12:22;6.00;99.90
1976;DHT22;988;48.016;7.800;2022-11-03T05:14:49;6.00;99.90
1976;DHT22;988;48.016;7.800;2022-11-03T05:17:22;5.90;99.90
1976;DHT22;988;48.016;7.800;2022-11-03T05:19:50;6.00;99.90
1976;DHT22;988;48.016;7.800;2022-11-03T05:22:20;6.00;99.90
1976;DHT22;988;48.016;7.800;2022-11-03T05:24:47;6.00;99.90
1976;DHT22;988;48.016;7.800;2022-11-03T05:27:19;6.00;99.90
1976;DHT22;988;48.016;7.800;2022-11-03T05:29:46;6.00;99.90
1976;DHT22;988;48.016;7.800;2022-11-03T05:32:19;6.00;99.90
1976;DHT22;988;48.016;7.800;2022-11-03T05:34:47;6.10;99.90
1976;DHT22;988;48.016;7.800;2022-11-03T05:39:49;6.10;99.90
1976;DHT22;988;48.016;7.800;2022-11-03T05:42:30;6.20;99.90
1976;DHT22;988;48.016;7.800;2022-11-03T05:44:57;6.20;99.90
1976;DHT22;988;48.016;7.800;2022-11-03T05:47:27;6.10;99.90
1976;DHT22;988;48.016;7.800;2022-11-03T05:49:59;6.20;99.90
1976;DHT22;988;48.016;7.800;2022-11-03T05:52:27;6.30;99.90
1976;DHT22;988;48.016;7.800;2022-11-03T05:54:55;6.40;99.90
1976;DHT22;988;48.016;7.800;2022-11-03T05:57:25;6.40;99.90
1976;DHT22;988;48.016;7.800;2022-11-03T05:59:53;6.40;99.90
1976;DHT22;988;48.016;7.800;2022-11-03T06:02:28;6.50;99.90
1976;DHT22;988;48.016;7.800;2022-11-03T06:04:57;6.50;99.90
1976;DHT22;988;48.016;7.800;2022-11-03T06:07:25;6.50;99.90
1976;DHT22;988;48.016;7.800;2022-11-03T06:09:54;6.60;99.90
1976;DHT22;988;48.016;7.800;2022-11-03T06:12:21;6.60;99.90
1976;DHT22;988;48.016;7.800;2022-11-03T06:14:48;6.70;99.90
1976;DHT22;988;48.016;7.800;2022-11-03T06:17:24;6.70;99.90
1976;DHT22;988;48.016;7.800;2022-11-03T06:19:56;6.80;99.90
1976;DHT22;988;48.016;7.800;2022-11-03T06:22:28;7.00;99.90
1976;DHT22;988;48.016;7.800;2022-11-03T06:25:28;7.00;99.90
1976;DHT22;988;48.016;7.800;2022-11-03T06:27:59;7.10;99.90
1976;DHT22;988;48.016;7.800;2022-11-03T06:30:32;7.10;99.90
1976;DHT22;988;48.016;7.800;2022-11-03T06:33:00;7.10;99.90
1976;DHT22;988;48.016;7.800;2022-11-03T06:35:28;7.40;99.90
1976;DHT22;988;48.016;7.800;2022-11-03T06:37:55;7.40;99.90
1976;DHT22;988;48.016;7.800;2022-11-03T06:42:53;7.70;99.90
1976;DHT22;988;48.016;7.800;2022-11-03T06:45:23;7.70;99.90
1976;DHT22;988;48.016;7.800;2022-11-03T06:47:50;7.90;99.90
1976;DHT22;988;48.016;7.800;2022-11-03T06:50:30;7.90;99.90
1976;DHT22;988;48.016;7.800;2022-11-03T06:52:58;8.10;99.90
1976;DHT22;988;48.016;7.800;2022-11-03T06:55:36;8.10;99.90
1976;DHT22;988;48.016;7.800;2022-11-03T06:58:56;8.10;99.90
1976;DHT22;988;48.016;7.800;2022-11-03T07:01:20;8.30;99.90
1976;DHT22;988;48.016;7.800;2022-11-03T07:03:47;8.20;99.90
1976;DHT22;988;48.016;7.800;2022-11-03T07:06:18;8.40;99.90
1976;DHT22;988;48.016;7.800;2022-11-03T07:08:50;8.60;99.90
1976;DHT22;988;48.016;7.800;2022-11-03T07:11:25;8.80;99.90
1976;DHT22;988;48.016;7.800;2022-11-03T07:13:57;9.30;99.90
1976;DHT22;988;48.016;7.800;2022-11-03T07:16:32;9.50;99.90
1976;DHT22;988;48.016;7.800;2022-11-03T07:19:04;9.60;99.90
1976;DHT22;988;48.016;7.800;2022-11-03T07:21:43;9.50;99.90
1976;DHT22;988;48.016;7.800;2022-11-03T07:24:26;9.90;99.90
1976;DHT22;988;48.016;7.800;2022-11-03T07:29:42;10.10;99.90
1976;DHT22;988;48.016;7.800;2022-11-03T07:32:29;10.20;99.90
1976;DHT22;988;48.016;7.800;2022-11-03T07:35:03;10.10;99.90
1976;DHT22;988;48.016;7.800;2022-11-03T07:37:29;10.10;99.90
1976;DHT22;988;48.016;7.800;2022-11-03T07:39:56;10.30;99.90
1976;DHT22;988;48.016;7.800;2022-11-03T07:42:24;10.60;99.90
1976;DHT22;988;48.016;7.800;2022-11-03T07:44:51;10.70;99.90
1976;DHT22;988;48.016;7.800;2022-11-03T07:47:21;10.70;99.90
1976;DHT22;988;48.016;7.800;2022-11-03T07:49:50;10.70;99.90
1976;DHT22;988;48.016;7.800;2022-11-03T07:52:19;10.90;99.90
1976;DHT22;988;48.016;7.800;2022-11-03T07:54:46;11.70;99.90
1976;DHT22;988;48.016;7.800;2022-11-03T07:59:45;13.80;99.90
1976;DHT22;988;48.016;7.800;2022-11-03T08:04:59;15.00;99.90
1976;DHT22;988;48.016;7.800;2022-11-03T08:07:25;15.30;99.90
1976;DHT22;988;48.016;7.800;2022-11-03T08:09:52;15.10;99.90
1976;DHT22;988;48.016;7.800;2022-11-03T08:12:18;15.50;99.90
1976;DHT22;988;48.016;7.800;2022-11-03T08:14:45;16.10;99.90
1976;DHT22;988;48.016;7.800;2022-11-03T08:17:11;17.50;98.20
1976;DHT22;988;48.016;7.800;2022-11-03T08:19:37;18.00;93.00
1976;DHT22;988;48.016;7.800;2022-11-03T08:22:02;18.00;92.30
1976;DHT22;988;48.016;7.800;2022-11-03T08:24:28;17.30;93.10
1976;DHT22;988;48.016;7.800;2022-11-03T08:26:54;18.20;92.20
1976;DHT22;988;48.016;7.800;2022-11-03T08:29:19;20.40;86.20
1976;DHT22;988;48.016;7.800;2022-11-03T08:31:45;21.10;78.70
1976;DHT22;988;48.016;7.800;2022-11-03T08:34:11;22.10;73.40
1976;DHT22;988;48.016;7.800;2022-11-03T08:36:37;21.50;73.00
1976;DHT22;988;48.016;7.800;2022-11-03T08:39:03;20.50;74.40
1976;DHT22;988;48.016;7.800;2022-11-03T08:41:30;19.70;77.50
1976;DHT22;988;48.016;7.800;2022-11-03T08:43:55;19.20;79.30
1976;DHT22;988;48.016;7.800;2022-11-03T08:46:21;19.60;79.20
1976;DHT22;988;48.016;7.800;2022-11-03T08:48:46;20.40;76.60
1976;DHT22;988;48.016;7.800;2022-11-03T08:51:13;20.20;74.90
1976;DHT22;988;48.016;7.800;2022-11-03T08:53:39;20.50;75.90
1976;DHT22;988;48.016;7.800;2022-11-03T08:56:07;20.50;75.00
1976;DHT22;988;48.016;7.800;2022-11-03T08:58:32;21.00;73.20
1976;DHT22;988;48.016;7.800;2022-11-03T09:00:58;21.30;71.90
1976;DHT22;988;48.016;7.800;2022-11-03T09:03:23;22.00;70.70
1976;DHT22;988;48.016;7.800;2022-11-03T09:05:49;22.40;68.70
1976;DHT22;988;48.016;7.800;2022-11-03T09:08:15;22.40;67.50
1976;DHT22;988;48.016;7.800;2022-11-03T09:10:41;21.80;70.40
1976;DHT22;988;48.016;7.800;2022-11-03T09:13:06;22.20;69.60
1976;DHT22;988;48.016;7.800;2022-11-03T09:15:32;22.50;67.10
1976;DHT22;988;48.016;7.800;2022-11-03T09:17:58;23.90;66.60
1976;DHT22;988;48.016;7.800;2022-11-03T09:20:24;25.00;63.10
1976;DHT22;988;48.016;7.800;2022-11-03T09:22:50;25.10;60.70
1976;DHT22;988;48.016;7.800;2022-11-03T09:25:15;24.10;62.10
1976;DHT22;988;48.016;7.800;2022-11-03T09:27:41;22.50;65.80
1976;DHT22;988;48.016;7.800;2022-11-03T09:30:10;20.80;69.30
1976;DHT22;988;48.016;7.800;2022-11-03T09:32:36;19.60;72.60
1976;DHT22;988;48.016;7.800;2022-11-03T09:35:02;18.80;76.60
1976;DHT22;988;48.016;7.800;2022-11-03T09:37:28;17.80;79.60
1976;DHT22;988;48.016;7.800;2022-11-03T09:39:54;17.50;80.20
1976;DHT22;988;48.016;7.800;2022-11-03T09:42:19;17.30;81.40
1976;DHT22;988;48.016;7.800;2022-11-03T09:44:46;17.10;82.10
1976;DHT22;988;48.016;7.800;2022-11-03T09:47:26;17.00;82.70
1976;DHT22;988;48.016;7.800;2022-11-03T09:49:54;17.00;84.00
1976;DHT22;988;48.016;7.800;2022-11-03T09:52:22;16.80;84.70
1976;DHT22;988;48.016;7.800;2022-11-03T09:54:50;16.80;85.60
1976;DHT22;988;48.016;7.800;2022-11-03T09:57:16;17.50;85.80
1976;DHT22;988;48.016;7.800;2022-11-03T09:59:46;17.50;85.20
1976;DHT22;988;48.016;7.800;2022-11-03T10:04:51;17.80;82.70
1976;DHT22;988;48.016;7.800;2022-11-03T10:07:18;18.00;82.80
1976;DHT22;988;48.016;7.800;2022-11-03T10:09:47;18.00;82.70
1976;DHT22;988;48.016;7.800;2022-11-03T10:12:14;17.70;82.60
1976;DHT22;988;48.016;7.800;2022-11-03T10:14:41;18.20;82.50
1976;DHT22;988;48.016;7.800;2022-11-03T10:17:13;19.00;80.80
1976;DHT22;988;48.016;7.800;2022-11-03T10:19:39;19.90;80.00
1976;DHT22;988;48.016;7.800;2022-11-03T10:22:06;19.70;77.10
1976;DHT22;988;48.016;7.800;2022-11-03T10:24:31;19.20;78.00
1976;DHT22;988;48.016;7.800;2022-11-03T10:26:57;19.10;79.30
1976;DHT22;988;48.016;7.800;2022-11-03T10:29:25;18.80;80.20
1976;DHT22;988;48.016;7.800;2022-11-03T10:31:55;18.50;82.30
1976;DHT22;988;48.016;7.800;2022-11-03T10:34:34;18.00;83.90
1976;DHT22;988;48.016;7.800;2022-11-03T10:37:13;18.10;85.10
1976;DHT22;988;48.016;7.800;2022-11-03T10:39:42;17.90;85.70
1976;DHT22;988;48.016;7.800;2022-11-03T10:42:36;17.60;86.00
1976;DHT22;988;48.016;7.800;2022-11-03T10:45:15;17.50;89.50
1976;DHT22;988;48.016;7.800;2022-11-03T10:47:41;17.50;89.50
1976;DHT22;988;48.016;7.800;2022-11-03T10:52:44;17.10;90.50
1976;DHT22;988;48.016;7.800;2022-11-03T10:55:09;16.70;91.30
1976;DHT22;988;48.016;7.800;2022-11-03T10:57:35;16.90;91.60
1976;DHT22;988;48.016;7.800;2022-11-03T11:00:02;16.90;91.40
1976;DHT22;988;48.016;7.800;2022-11-03T11:02:30;16.80;91.90
1976;DHT22;988;48.016;7.800;2022-11-03T11:05:00;16.60;92.40
1976;DHT22;988;48.016;7.800;2022-11-03T11:07:35;16.80;93.10
1976;DHT22;988;48.016;7.800;2022-11-03T11:10:26;16.70;92.90
1976;DHT22;988;48.016;7.800;2022-11-03T11:13:23;16.60;93.20
1976;DHT22;988;48.016;7.800;2022-11-03T11:15:58;16.50;93.50
1976;DHT22;988;48.016;7.800;2022-11-03T11:20:53;17.10;92.60
1976;DHT22;988;48.016;7.800;2022-11-03T11:26:14;17.00;92.80
1976;DHT22;988;48.016;7.800;2022-11-03T11:28:44;16.80;93.10
1976;DHT22;988;48.016;7.800;2022-11-03T11:31:29;16.70;93.50
1976;DHT22;988;48.016;7.800;2022-11-03T11:42:09;16.90;93.70
1976;DHT22;988;48.016;7.800;2022-11-03T11:47:41;16.50;94.90
1976;DHT22;988;48.016;7.800;2022-11-03T11:52:46;16.60;95.10
1976;DHT22;988;48.016;7.800;2022-11-03T11:55:25;16.70;95.30
1976;DHT22;988;48.016;7.800;2022-11-03T11:57:52;16.60;95.30
1976;DHT22;988;48.016;7.800;2022-11-03T12:00:19;16.80;95.70
1976;DHT22;988;48.016;7.800;2022-11-03T12:02:47;16.60;96.10
1976;DHT22;988;48.016;7.800;2022-11-03T12:05:23;16.40;96.70
1976;DHT22;988;48.016;7.800;2022-11-03T12:07:50;16.30;97.10
1976;DHT22;988;48.016;7.800;2022-11-03T12:10:18;16.60;97.60
1976;DHT22;988;48.016;7.800;2022-11-03T12:12:45;16.70;96.90
1976;DHT22;988;48.016;7.800;2022-11-03T12:18:37;16.50;97.50
1976;DHT22;988;48.016;7.800;2022-11-03T12:21:09;16.70;97.60
1976;DHT22;988;48.016;7.800;2022-11-03T12:26:15;16.70;97.40
1976;DHT22;988;48.016;7.800;2022-11-03T12:28:41;16.60;97.60
1976;DHT22;988;48.016;7.800;2022-11-03T12:31:07;16.60;98.10
1976;DHT22;988;48.016;7.800;2022-11-03T12:33:33;16.60;98.50
1976;DHT22;988;48.016;7.800;2022-11-03T12:35:58;16.80;99.20
1976;DHT22;988;48.016;7.800;2022-11-03T12:38:24;16.50;98.60
1976;DHT22;988;48.016;7.800;2022-11-03T12:40:50;16.50;98.60
1976;DHT22;988;48.016;7.800;2022-11-03T12:43:16;16.30;99.40
1976;DHT22;988;48.016;7.800;2022-11-03T12:45:41;16.20;99.90
1976;DHT22;988;48.016;7.800;2022-11-03T12:48:07;16.30;99.60
1976;DHT22;988;48.016;7.800;2022-11-03T12:50:33;16.60;99.90
1976;DHT22;988;48.016;7.800;2022-11-03T12:53:02;16.70;99.70
1976;DHT22;988;48.016;7.800;2022-11-03T12:55:28;16.90;99.70
1976;DHT22;988;48.016;7.800;2022-11-03T12:57:53;17.20;98.70
1976;DHT22;988;48.016;7.800;2022-11-03T13:00:19;17.10;99.30
1976;DHT22;988;48.016;7.800;2022-11-03T13:02:44;17.20;99.10
1976;DHT22;988;48.016;7.800;2022-11-03T13:05:10;17.10;98.10
1976;DHT22;988;48.016;7.800;2022-11-03T13:07:42;17.20;98.80
1976;DHT22;988;48.016;7.800;2022-11-03T13:10:08;17.40;97.70
1976;DHT22;988;48.016;7.800;2022-11-03T13:12:34;17.20;97.20
1976;DHT22;988;48.016;7.800;2022-11-03T13:15:06;17.30;97.50
1976;DHT22;988;48.016;7.800;2022-11-03T13:17:32;17.00;97.80
1976;DHT22;988;48.016;7.800;2022-11-03T13:19:58;17.30;97.30
1976;DHT22;988;48.016;7.800;2022-11-03T13:22:24;17.50;96.50
1976;DHT22;988;48.016;7.800;2022-11-03T13:24:50;17.60;96.70
1976;DHT22;988;48.016;7.800;2022-11-03T13:27:15;17.00;97.50
1976;DHT22;988;48.016;7.800;2022-11-03T13:29:41;16.70;98.50
1976;DHT22;988;48.016;7.800;2022-11-03T13:32:07;16.80;98.40
1976;DHT22;988;48.016;7.800;2022-11-03T13:34:32;16.70;99.10
1976;DHT22;988;48.016;7.800;2022-11-03T13:36:58;16.80;98.60
1976;DHT22;988;48.016;7.800;2022-11-03T13:39:24;16.50;98.50
1976;DHT22;988;48.016;7.800;2022-11-03T13:41:49;16.80;98.20
1976;DHT22;988;48.016;7.800;2022-11-03T13:44:15;16.90;98.50
1976;DHT22;988;48.016;7.800;2022-11-03T13:46:41;16.70;99.10
1976;DHT22;988;48.016;7.800;2022-11-03T13:49:06;16.60;99.40
1976;DHT22;988;48.016;7.800;2022-11-03T13:51:32;16.60;99.90
1976;DHT22;988;48.016;7.800;2022-11-03T13:53:57;16.50;99.90
1976;DHT22;988;48.016;7.800;2022-11-03T13:56:23;16.60;99.90
1976;DHT22;988;48.016;7.800;2022-11-03T13:58:49;16.70;99.90
1976;DHT22;988;48.016;7.800;2022-11-03T14:01:15;16.50;99.90
1976;DHT22;988;48.016;7.800;2022-11-03T14:03:41;16.80;99.90
1976;DHT22;988;48.016;7.800;2022-11-03T14:06:07;16.50;99.90
1976;DHT22;988;48.016;7.800;2022-11-03T14:08:32;16.70;99.90
1976;DHT22;988;48.016;7.800;2022-11-03T14:10:58;16.70;99.90
1976;DHT22;988;48.016;7.800;2022-11-03T14:13:24;16.80;99.90
1976;DHT22;988;48.016;7.800;2022-11-03T14:15:49;16.70;99.90
1976;DHT22;988;48.016;7.800;2022-11-03T14:18:15;17.00;99.90
1976;DHT22;988;48.016;7.800;2022-11-03T14:20:40;16.80;99.90
1976;DHT22;988;48.016;7.800;2022-11-03T14:23:06;16.90;99.90
1976;DHT22;988;48.016;7.800;2022-11-03T14:25:31;16.90;99.90
1976;DHT22;988;48.016;7.800;2022-11-03T14:27:57;16.80;99.90
1976;DHT22;988;48.016;7.800;2022-11-03T14:30:22;16.80;99.50
1976;DHT22;988;48.016;7.800;2022-11-03T14:32:48;16.80;99.90
1976;DHT22;988;48.016;7.800;2022-11-03T14:35:14;16.80;99.20
1976;DHT22;988;48.016;7.800;2022-11-03T14:37:39;16.80;99.50
1976;DHT22;988;48.016;7.800;2022-11-03T14:40:05;16.70;99.30
1976;DHT22;988;48.016;7.800;2022-11-03T14:42:31;16.70;99.20
1976;DHT22;988;48.016;7.800;2022-11-03T14:44:57;16.40;99.70
1976;DHT22;988;48.016;7.800;2022-11-03T14:47:22;16.20;99.90
1976;DHT22;988;48.016;7.800;2022-11-03T14:49:49;16.30;99.90
1976;DHT22;988;48.016;7.800;2022-11-03T14:52:15;16.50;99.90
1976;DHT22;988;48.016;7.800;2022-11-03T14:54:42;16.20;99.90
1976;DHT22;988;48.016;7.800;2022-11-03T14:57:08;16.40;99.90
1976;DHT22;988;48.016;7.800;2022-11-03T14:59:34;16.10;99.90
1976;DHT22;988;48.016;7.800;2022-11-03T15:02:00;16.30;99.90
1976;DHT22;988;48.016;7.800;2022-11-03T15:04:26;16.10;99.90
1976;DHT22;988;48.016;7.800;2022-11-03T15:06:52;16.10;99.90
1976;DHT22;988;48.016;7.800;2022-11-03T15:09:17;15.90;99.90
1976;DHT22;988;48.016;7.800;2022-11-03T15:11:44;16.00;99.90
1976;DHT22;988;48.016;7.800;2022-11-03T15:14:11;15.70;99.90
1976;DHT22;988;48.016;7.800;2022-11-03T15:16:37;15.80;99.90
1976;DHT22;988;48.016;7.800;2022-11-03T15:19:04;15.70;99.90
1976;DHT22;988;48.016;7.800;2022-11-03T15:21:30;15.70;99.90
1976;DHT22;988;48.016;7.800;2022-11-03T15:23:56;15.80;99.90
1976;DHT22;988;48.016;7.800;2022-11-03T15:26:22;15.50;99.90
1976;DHT22;988;48.016;7.800;2022-11-03T15:28:47;15.50;99.90
1976;DHT22;988;48.016;7.800;2022-11-03T15:31:13;15.50;99.90
1976;DHT22;988;48.016;7.800;2022-11-03T15:33:38;15.40;99.90
1976;DHT22;988;48.016;7.800;2022-11-03T15:36:04;15.00;99.90
1976;DHT22;988;48.016;7.800;2022-11-03T15:38:32;15.20;99.90
1976;DHT22;988;48.016;7.800;2022-11-03T15:40:57;15.20;99.90
1976;DHT22;988;48.016;7.800;2022-11-03T15:43:47;15.00;99.90
1976;DHT22;988;48.016;7.800;2022-11-03T15:46:14;15.00;99.90
1976;DHT22;988;48.016;7.800;2022-11-03T15:48:41;14.80;99.90
1976;DHT22;988;48.016;7.800;2022-11-03T15:51:07;14.90;99.90
1976;DHT22;988;48.016;7.800;2022-11-03T15:53:33;14.90;99.90
1976;DHT22;988;48.016;7.800;2022-11-03T15:55:59;14.90;99.90
1976;DHT22;988;48.016;7.800;2022-11-03T15:58:25;14.90;99.90
1976;DHT22;988;48.016;7.800;2022-11-03T16:00:50;14.80;99.90
1976;DHT22;988;48.016;7.800;2022-11-03T16:03:16;14.80;99.90
1976;DHT22;988;48.016;7.800;2022-11-03T16:05:42;14.80;99.90
1976;DHT22;988;48.016;7.800;2022-11-03T16:08:07;14.90;99.90
1976;DHT22;988;48.016;7.800;2022-11-03T16:10:33;14.80;99.90
1976;DHT22;988;48.016;7.800;2022-11-03T16:12:58;14.60;99.90
1976;DHT22;988;48.016;7.800;2022-11-03T16:15:24;14.70;99.90
1976;DHT22;988;48.016;7.800;2022-11-03T16:17:49;14.60;99.90
1976;DHT22;988;48.016;7.800;2022-11-03T16:20:15;14.50;99.90
1976;DHT22;988;48.016;7.800;2022-11-03T16:22:41;14.50;99.90
1976;DHT22;988;48.016;7.800;2022-11-03T16:25:07;14.60;99.90
1976;DHT22;988;48.016;7.800;2022-11-03T16:27:32;14.60;99.90
1976;DHT22;988;48.016;7.800;2022-11-03T16:29:58;14.60;99.90
1976;DHT22;988;48.016;7.800;2022-11-03T16:32:23;14.50;99.90
1976;DHT22;988;48.016;7.800;2022-11-03T16:34:49;14.50;99.90
1976;DHT22;988;48.016;7.800;2022-11-03T16:37:15;14.60;99.90
1976;DHT22;988;48.016;7.800;2022-11-03T16:39:41;14.50;99.90
1976;DHT22;988;48.016;7.800;2022-11-03T16:42:07;14.50;99.90
1976;DHT22;988;48.016;7.800;2022-11-03T16:44:32;14.40;99.90
1976;DHT22;988;48.016;7.800;2022-11-03T16:46:59;14.50;99.90
1976;DHT22;988;48.016;7.800;2022-11-03T16:49:25;14.50;99.90
1976;DHT22;988;48.016;7.800;2022-11-03T16:51:51;14.30;99.90
1976;DHT22;988;48.016;7.800;2022-11-03T16:54:17;14.30;99.90
1976;DHT22;988;48.016;7.800;2022-11-03T16:56:42;14.40;99.90
1976;DHT22;988;48.016;7.800;2022-11-03T16:59:09;14.30;99.90
1976;DHT22;988;48.016;7.800;2022-11-03T17:01:34;14.40;99.90
1976;DHT22;988;48.016;7.800;2022-11-03T17:04:00;14.40;99.90
1976;DHT22;988;48.016;7.800;2022-11-03T17:06:26;14.20;99.90
1976;DHT22;988;48.016;7.800;2022-11-03T17:08:52;14.40;99.90
1976;DHT22;988;48.016;7.800;2022-11-03T17:11:17;14.60;99.90
1976;DHT22;988;48.016;7.800;2022-11-03T17:14:03;14.50;99.90
1976;DHT22;988;48.016;7.800;2022-11-03T17:16:29;14.30;99.90
1976;DHT22;988;48.016;7.800;2022-11-03T17:18:55;14.40;99.90
1976;DHT22;988;48.016;7.800;2022-11-03T17:21:23;14.50;99.90
1976;DHT22;988;48.016;7.800;2022-11-03T17:23:49;14.20;99.90
1976;DHT22;988;48.016;7.800;2022-11-03T17:26:17;14.20;99.90
1976;DHT22;988;48.016;7.800;2022-11-03T17:28:43;14.40;99.90
1976;DHT22;988;48.016;7.800;2022-11-03T17:31:08;14.20;99.90
1976;DHT22;988;48.016;7.800;2022-11-03T17:33:35;14.30;99.90
1976;DHT22;988;48.016;7.800;2022-11-03T17:36:01;14.30;99.90
1976;DHT22;988;48.016;7.800;2022-11-03T17:38:27;14.10;99.90